Time;durP1;ratioP1;P1;durP2;ratioP2;P2;SDS_P1;SDS_P2;PMS_P1;PMS_P2;Temp;Humidity;BMP_temperature;BMP_pressure;BME280_temperature;BME280_humidity;BME280_pressure;Samples;Min_cycle;Max_cycle;Signal;HPM_P1;HPM_P2
2022/10/30 00:01:18;;;;;;;27.20;13.55;;;;;;;;;;5052884;28;20120;-80
2022/10/30 00:03:43;;;;;;;27.65;13.98;;;;;;;;;;5052241;28;20087;-78
2022/10/30 00:06:08;;;;;;;32.50;14.27;;;;;;;;;;5051684;28;20024;-78
2022/10/30 00:08:34;;;;;;;23.75;13.50;;;;;;;;;;5067293;28;20021;-78
2022/10/30 00:11:10;;;;;;;26.52;13.13;;;;;;;;;;5052097;28;20463;-78
2022/10/30 00:13:36;;;;;;;24.10;13.82;;;;;;;;;;5052041;28;20029;-78
2022/10/30 00:16:05;;;;;;;27.10;13.57;;;;;;;;;;5052079;28;20091;-78
2022/10/30 00:18:31;;;;;;;24.88;12.88;;;;;;;;;;5051536;28;20039;-78
2022/10/30 00:20:56;;;;;;;32.80;13.32;;;;;;;;;;5051987;28;20029;-79
2022/10/30 00:23:22;;;;;;;27.15;13.20;;;;;;;;;;5051798;28;20033;-79
2022/10/30 00:25:47;;;;;;;24.58;13.13;;;;;;;;;;5052071;28;20638;-78
2022/10/30 00:28:12;;;;;;;25.17;13.38;;;;;;;;;;5051895;28;20456;-78
2022/10/30 00:30:37;;;;;;;27.83;12.50;;;;;;;;;;5051891;28;20028;-79
2022/10/30 00:33:03;;;;;;;29.35;13.20;;;;;;;;;;5066940;28;20116;-78
2022/10/30 00:35:29;;;;;;;24.17;12.30;;;;;;;;;;5051904;28;20463;-79
2022/10/30 00:37:54;;;;;;;24.55;12.77;;;;;;;;;;5051687;28;20039;-79
2022/10/30 00:40:20;;;;;;;30.15;12.25;;;;;;;;;;5066812;28;20541;-79
2022/10/30 00:42:45;;;;;;;28.42;12.68;;;;;;;;;;5050994;28;20494;-79
2022/10/30 00:45:13;;;;;;;23.25;12.77;;;;;;;;;;5066599;28;20069;-79
2022/10/30 00:47:43;;;;;;;23.15;12.02;;;;;;;;;;5066591;28;20083;-79
2022/10/30 00:50:14;;;;;;;24.15;12.45;;;;;;;;;;5051308;28;20025;-79
2022/10/30 00:52:46;;;;;;;27.08;12.35;;;;;;;;;;5051336;28;20040;-78
2022/10/30 00:55:17;;;;;;;25.25;11.98;;;;;;;;;;5051649;28;20040;-79
2022/10/30 00:57:43;;;;;;;27.90;12.15;;;;;;;;;;5079283;28;20032;-79
2022/10/30 01:00:09;;;;;;;21.65;12.10;;;;;;;;;;5086903;28;20573;-79
2022/10/30 01:02:36;;;;;;;18.00;11.10;;;;;;;;;;5071744;28;20050;-80
2022/10/30 01:05:03;;;;;;;23.60;12.32;;;;;;;;;;5071935;28;20033;-79
2022/10/30 01:07:29;;;;;;;20.38;10.98;;;;;;;;;;5070320;28;20005;-79
2022/10/30 01:09:54;;;;;;;21.90;11.80;;;;;;;;;;5071996;28;20195;-78
2022/10/30 01:12:19;;;;;;;27.20;11.75;;;;;;;;;;5072779;28;20055;-80
2022/10/30 01:14:50;;;;;;;23.10;11.80;;;;;;;;;;5071658;28;20783;-81
2022/10/30 01:17:40;;;;;;;23.00;11.88;;;;;;;;;;5071846;28;20029;-80
2022/10/30 01:20:44;;;;;;;21.40;11.70;;;;;;;;;;5072069;28;20024;-79
2022/10/30 01:23:11;;;;;;;21.08;11.38;;;;;;;;;;5070790;28;20055;-81
2022/10/30 01:25:52;;;;;;;24.85;11.43;;;;;;;;;;5072374;28;20037;-79
2022/10/30 01:28:25;;;;;;;17.88;11.23;;;;;;;;;;5069776;28;20021;-79
2022/10/30 01:30:53;;;;;;;24.50;12.55;;;;;;;;;;5054606;28;20029;-77
2022/10/30 01:34:06;;;;;;;23.45;11.55;;;;;;;;;;5050565;28;20029;-78
2022/10/30 01:36:50;;;;;;;24.23;11.32;;;;;;;;;;5028073;28;20029;-78
2022/10/30 01:39:20;;;;;;;26.50;11.93;;;;;;;;;;5048641;28;20073;-78
2022/10/30 01:41:45;;;;;;;21.75;10.98;;;;;;;;;;5066008;28;20025;-78
2022/10/30 01:44:18;;;;;;;20.33;11.65;;;;;;;;;;5065049;28;20082;-78
2022/10/30 01:47:01;;;;;;;21.85;11.43;;;;;;;;;;5065762;28;20067;-78
2022/10/30 01:50:05;;;;;;;21.38;11.73;;;;;;;;;;5050570;28;20029;-79
2022/10/30 01:52:54;;;;;;;23.48;11.77;;;;;;;;;;5037807;28;20037;-78
2022/10/30 01:55:37;;;;;;;20.38;11.10;;;;;;;;;;5065111;28;20064;-80
2022/10/30 01:58:21;;;;;;;22.77;11.60;;;;;;;;;;5050061;28;20035;-78
2022/10/30 02:00:53;;;;;;;21.20;11.48;;;;;;;;;;5048689;28;20033;-78
2022/10/30 02:03:18;;;;;;;20.13;11.27;;;;;;;;;;5050047;28;20029;-78
2022/10/30 02:05:48;;;;;;;18.00;10.57;;;;;;;;;;5049910;28;20040;-80
2022/10/30 02:08:13;;;;;;;27.48;11.93;;;;;;;;;;5048130;28;20041;-78
2022/10/30 02:10:41;;;;;;;24.27;12.05;;;;;;;;;;5049436;28;20036;-79
2022/10/30 02:13:06;;;;;;;18.70;10.88;;;;;;;;;;5064557;28;20036;-78
2022/10/30 02:15:33;;;;;;;17.88;10.88;;;;;;;;;;5049739;28;20029;-79
2022/10/30 02:17:58;;;;;;;21.27;12.02;;;;;;;;;;5049783;28;20050;-80
2022/10/30 02:20:24;;;;;;;19.70;10.73;;;;;;;;;;5049149;28;20501;-78
2022/10/30 02:22:50;;;;;;;22.02;11.40;;;;;;;;;;5049573;28;20486;-77
2022/10/30 02:25:15;;;;;;;18.63;10.10;;;;;;;;;;5049442;28;20084;-79
2022/10/30 02:27:41;;;;;;;19.23;10.32;;;;;;;;;;5049641;28;20375;-78
2022/10/30 02:30:07;;;;;;;18.80;10.55;;;;;;;;;;5049571;28;20028;-77
2022/10/30 02:32:32;;;;;;;23.73;11.25;;;;;;;;;;5064757;28;20032;-79
2022/10/30 02:34:57;;;;;;;23.40;10.93;;;;;;;;;;5049438;28;20056;-78
2022/10/30 02:37:23;;;;;;;24.55;12.18;;;;;;;;;;5049665;28;20040;-80
2022/10/30 02:39:49;;;;;;;19.40;10.63;;;;;;;;;;5049580;28;20032;-78
2022/10/30 02:42:14;;;;;;;19.83;11.15;;;;;;;;;;5049073;28;20033;-80
2022/10/30 02:44:39;;;;;;;23.13;10.93;;;;;;;;;;5049369;28;20490;-78
2022/10/30 02:47:05;;;;;;;23.65;11.27;;;;;;;;;;5048161;28;20029;-79
2022/10/30 02:49:30;;;;;;;18.17;10.18;;;;;;;;;;5049441;28;20056;-79
2022/10/30 02:51:55;;;;;;;22.85;10.88;;;;;;;;;;5049465;28;20063;-79
2022/10/30 02:54:20;;;;;;;19.25;11.07;;;;;;;;;;5049169;28;20029;-80
2022/10/30 02:56:46;;;;;;;27.60;11.93;;;;;;;;;;5049292;28;20040;-78
2022/10/30 02:59:11;;;;;;;20.58;11.07;;;;;;;;;;5049500;28;20091;-77
2022/10/30 03:01:36;;;;;;;23.98;11.15;;;;;;;;;;5050346;28;20456;-77
2022/10/30 03:04:02;;;;;;;27.38;11.20;;;;;;;;;;5052771;28;20025;-79
2022/10/30 03:06:27;;;;;;;21.67;11.02;;;;;;;;;;5051337;28;20033;-77
2022/10/30 03:08:52;;;;;;;23.10;11.45;;;;;;;;;;5052779;28;20372;-78
2022/10/30 03:11:19;;;;;;;19.60;10.93;;;;;;;;;;5052942;28;20028;-77
2022/10/30 03:13:46;;;;;;;22.88;12.15;;;;;;;;;;5052624;28;20517;-77
2022/10/30 03:16:17;;;;;;;20.67;11.55;;;;;;;;;;5052676;28;20048;-77
2022/10/30 03:18:43;;;;;;;19.58;10.50;;;;;;;;;;5052590;28;20033;-77
2022/10/30 03:21:11;;;;;;;20.45;11.55;;;;;;;;;;5068578;28;20025;-77
2022/10/30 03:23:37;;;;;;;23.45;11.60;;;;;;;;;;5054605;28;20037;-77
2022/10/30 03:26:02;;;;;;;23.17;11.73;;;;;;;;;;5056531;28;20025;-77
2022/10/30 03:28:29;;;;;;;20.10;11.38;;;;;;;;;;5071623;28;20025;-77
2022/10/30 03:31:03;;;;;;;21.83;10.60;;;;;;;;;;5056452;28;20082;-77
2022/10/30 03:33:29;;;;;;;16.98;9.73;;;;;;;;;;5056310;28;20031;-77
2022/10/30 03:35:55;;;;;;;19.40;10.10;;;;;;;;;;5072606;28;20375;-77
2022/10/30 03:38:20;;;;;;;17.65;9.73;;;;;;;;;;5056429;28;20021;-77
2022/10/30 03:40:46;;;;;;;23.02;10.93;;;;;;;;;;5055967;28;20063;-77
2022/10/30 03:43:11;;;;;;;18.50;10.90;;;;;;;;;;5056312;28;20052;-77
2022/10/30 03:45:36;;;;;;;22.30;10.85;;;;;;;;;;5055720;28;20075;-77
2022/10/30 03:48:04;;;;;;;19.48;11.25;;;;;;;;;;5056365;28;20025;-77
2022/10/30 03:50:29;;;;;;;19.17;10.05;;;;;;;;;;5071197;28;20029;-77
2022/10/30 03:52:55;;;;;;;24.25;10.82;;;;;;;;;;5055700;28;20047;-77
2022/10/30 03:55:21;;;;;;;23.08;10.93;;;;;;;;;;5055687;28;20021;-77
2022/10/30 03:57:46;;;;;;;21.95;9.82;;;;;;;;;;5055817;28;20067;-77
2022/10/30 04:00:12;;;;;;;22.33;11.05;;;;;;;;;;5055841;28;20029;-78
2022/10/30 04:02:38;;;;;;;25.20;10.32;;;;;;;;;;5055845;28;20063;-78
2022/10/30 04:05:03;;;;;;;20.92;10.30;;;;;;;;;;5055637;28;20056;-77
2022/10/30 04:07:29;;;;;;;15.35;9.23;;;;;;;;;;5071113;28;20500;-77
2022/10/30 04:09:54;;;;;;;21.23;9.77;;;;;;;;;;5070840;28;20024;-77
2022/10/30 04:12:20;;;;;;;20.75;9.75;;;;;;;;;;5054191;28;20029;-77
2022/10/30 04:14:45;;;;;;;17.50;9.65;;;;;;;;;;5055718;28;20355;-77
2022/10/30 04:17:10;;;;;;;18.73;9.82;;;;;;;;;;5055493;28;20125;-77
2022/10/30 04:19:35;;;;;;;22.90;10.52;;;;;;;;;;5055411;28;20086;-77
2022/10/30 04:22:01;;;;;;;19.50;10.25;;;;;;;;;;5055704;28;20049;-77
2022/10/30 04:24:26;;;;;;;19.05;10.23;;;;;;;;;;5055103;28;20086;-76
2022/10/30 04:26:51;;;;;;;22.02;10.40;;;;;;;;;;5055332;28;20078;-77
2022/10/30 04:29:17;;;;;;;23.10;11.55;;;;;;;;;;5070726;28;20454;-77
2022/10/30 04:31:42;;;;;;;23.15;10.50;;;;;;;;;;5055008;28;20363;-77
2022/10/30 04:34:07;;;;;;;22.08;11.15;;;;;;;;;;5054274;28;20075;-77
2022/10/30 04:36:32;;;;;;;19.88;9.95;;;;;;;;;;5054885;28;20028;-77
2022/10/30 04:38:59;;;;;;;22.45;10.70;;;;;;;;;;5055506;28;20029;-77
2022/10/30 04:41:25;;;;;;;20.75;10.93;;;;;;;;;;5055110;28;20025;-76
2022/10/30 04:43:51;;;;;;;21.63;10.82;;;;;;;;;;5054754;28;20036;-77
2022/10/30 04:46:17;;;;;;;21.73;11.23;;;;;;;;;;5054708;28;20107;-76
2022/10/30 04:48:43;;;;;;;21.08;11.52;;;;;;;;;;5055065;28;20090;-77
2022/10/30 04:51:08;;;;;;;22.65;10.82;;;;;;;;;;5055023;28;20155;-77
2022/10/30 04:53:34;;;;;;;22.38;11.30;;;;;;;;;;5054834;28;20037;-77
2022/10/30 04:55:59;;;;;;;19.90;10.85;;;;;;;;;;5069977;28;20071;-77
2022/10/30 04:58:24;;;;;;;23.25;10.82;;;;;;;;;;5054914;28;20021;-77
2022/10/30 05:00:50;;;;;;;21.92;11.25;;;;;;;;;;5054333;28;20023;-77
2022/10/30 05:03:23;;;;;;;25.30;11.65;;;;;;;;;;5054289;28;20056;-77
2022/10/30 05:05:57;;;;;;;23.02;11.35;;;;;;;;;;5054269;28;20477;-76
2022/10/30 05:08:23;;;;;;;21.30;11.30;;;;;;;;;;5054446;28;20032;-77
2022/10/30 05:10:48;;;;;;;24.80;11.98;;;;;;;;;;5054449;28;20017;-77
2022/10/30 05:13:14;;;;;;;19.67;10.95;;;;;;;;;;5054319;28;20078;-77
2022/10/30 05:15:40;;;;;;;21.20;11.05;;;;;;;;;;5054676;28;20024;-77
2022/10/30 05:18:05;;;;;;;21.30;11.32;;;;;;;;;;5054258;28;20069;-77
2022/10/30 05:20:30;;;;;;;20.05;10.95;;;;;;;;;;5054382;28;20394;-77
2022/10/30 05:22:57;;;;;;;22.25;11.50;;;;;;;;;;5052985;28;20108;-77
2022/10/30 05:25:23;;;;;;;19.35;11.32;;;;;;;;;;5054160;28;20028;-77
2022/10/30 05:27:48;;;;;;;24.90;12.60;;;;;;;;;;5069606;28;20025;-77
2022/10/30 05:30:14;;;;;;;21.98;11.27;;;;;;;;;;5054002;28;20021;-77
2022/10/30 05:32:39;;;;;;;20.20;11.35;;;;;;;;;;5054086;28;20087;-77
2022/10/30 05:35:05;;;;;;;23.60;11.27;;;;;;;;;;5053056;28;20075;-77
2022/10/30 05:37:30;;;;;;;21.60;11.07;;;;;;;;;;5052571;28;20027;-77
2022/10/30 05:39:55;;;;;;;19.40;11.27;;;;;;;;;;5053778;28;20088;-77
2022/10/30 05:42:20;;;;;;;19.25;10.50;;;;;;;;;;5054043;28;20021;-77
2022/10/30 05:44:46;;;;;;;20.35;9.95;;;;;;;;;;5053528;28;20102;-77
2022/10/30 05:47:11;;;;;;;23.73;9.95;;;;;;;;;;5053619;28;20024;-77
2022/10/30 05:49:36;;;;;;;17.60;10.38;;;;;;;;;;5053633;28;20028;-77
2022/10/30 05:52:02;;;;;;;17.60;11.00;;;;;;;;;;5053489;28;20440;-77
2022/10/30 05:54:27;;;;;;;18.35;9.70;;;;;;;;;;5053456;28;20115;-77
2022/10/30 05:56:52;;;;;;;17.83;10.20;;;;;;;;;;5053653;28;20025;-77
2022/10/30 05:59:18;;;;;;;20.83;10.70;;;;;;;;;;5053438;28;20036;-77
2022/10/30 06:01:43;;;;;;;21.42;10.52;;;;;;;;;;5053578;28;20372;-77
2022/10/30 06:04:08;;;;;;;18.77;10.27;;;;;;;;;;5053493;28;20390;-77
2022/10/30 06:06:33;;;;;;;21.30;10.32;;;;;;;;;;5053311;28;20024;-77
2022/10/30 06:08:59;;;;;;;19.90;10.27;;;;;;;;;;5053663;28;20474;-78
2022/10/30 06:11:24;;;;;;;19.77;9.93;;;;;;;;;;5053257;28;20025;-77
2022/10/30 06:13:49;;;;;;;20.90;10.57;;;;;;;;;;5051833;28;20028;-77
2022/10/30 06:16:14;;;;;;;19.20;10.35;;;;;;;;;;5052076;28;20032;-77
2022/10/30 06:18:40;;;;;;;18.08;9.52;;;;;;;;;;5053593;28;20044;-77
2022/10/30 06:21:05;;;;;;;18.73;9.52;;;;;;;;;;5049428;28;20090;-78
2022/10/30 06:23:30;;;;;;;17.70;10.13;;;;;;;;;;5049358;28;20059;-79
2022/10/30 06:25:55;;;;;;;18.13;10.13;;;;;;;;;;5049578;28;20485;-78
2022/10/30 06:28:21;;;;;;;15.68;9.43;;;;;;;;;;5049651;28;20116;-80
2022/10/30 06:30:46;;;;;;;19.20;10.40;;;;;;;;;;5049788;28;20513;-78
2022/10/30 06:33:11;;;;;;;21.23;9.82;;;;;;;;;;5049120;28;20029;-79
2022/10/30 06:35:37;;;;;;;20.77;10.07;;;;;;;;;;5049644;28;20120;-78
2022/10/30 06:38:03;;;;;;;17.15;9.20;;;;;;;;;;5065300;28;20445;-78
2022/10/30 06:40:28;;;;;;;16.52;9.90;;;;;;;;;;5049801;28;20059;-79
2022/10/30 06:42:54;;;;;;;19.67;10.30;;;;;;;;;;5049971;28;20495;-79
2022/10/30 06:45:21;;;;;;;16.95;9.93;;;;;;;;;;5049378;28;20029;-80
2022/10/30 06:47:47;;;;;;;16.98;9.43;;;;;;;;;;5049688;28;20033;-79
2022/10/30 06:50:15;;;;;;;13.85;9.00;;;;;;;;;;5064952;28;20600;-78
2022/10/30 06:52:41;;;;;;;21.60;10.55;;;;;;;;;;5049725;28;20033;-78
2022/10/30 06:55:07;;;;;;;17.65;9.32;;;;;;;;;;5049548;28;20032;-77
2022/10/30 06:57:33;;;;;;;16.83;9.43;;;;;;;;;;5049741;28;20033;-77
2022/10/30 06:59:58;;;;;;;17.02;9.57;;;;;;;;;;5053843;28;20036;-78
2022/10/30 07:02:23;;;;;;;19.10;10.30;;;;;;;;;;5053510;28;20071;-78
2022/10/30 07:04:49;;;;;;;17.25;9.38;;;;;;;;;;5068552;28;20052;-78
2022/10/30 07:07:14;;;;;;;20.88;9.40;;;;;;;;;;5068493;28;20037;-78
2022/10/30 07:09:40;;;;;;;19.55;9.55;;;;;;;;;;5052722;28;20048;-79
2022/10/30 07:12:06;;;;;;;18.90;9.43;;;;;;;;;;5053040;28;20507;-80
2022/10/30 07:14:31;;;;;;;19.00;9.82;;;;;;;;;;5053093;28;20020;-78
2022/10/30 07:16:56;;;;;;;17.13;9.57;;;;;;;;;;5053316;28;20025;-79
2022/10/30 07:19:22;;;;;;;20.38;10.13;;;;;;;;;;5053000;28;20029;-78
2022/10/30 07:21:47;;;;;;;23.15;10.30;;;;;;;;;;5052485;28;20036;-78
2022/10/30 07:24:13;;;;;;;19.15;10.23;;;;;;;;;;5052671;28;20025;-78
2022/10/30 07:26:38;;;;;;;16.88;10.02;;;;;;;;;;5052794;28;20116;-78
2022/10/30 07:29:03;;;;;;;23.50;10.45;;;;;;;;;;5052854;28;20049;-80
2022/10/30 07:31:29;;;;;;;18.25;9.93;;;;;;;;;;5052644;28;20486;-78
2022/10/30 07:33:54;;;;;;;19.77;9.88;;;;;;;;;;5052327;28;20033;-78
2022/10/30 07:36:19;;;;;;;20.15;10.65;;;;;;;;;;5052603;28;20445;-78
2022/10/30 07:38:47;;;;;;;20.00;10.35;;;;;;;;;;5052964;28;20033;-79
2022/10/30 07:41:12;;;;;;;19.67;10.25;;;;;;;;;;5052444;28;20116;-78
2022/10/30 07:43:37;;;;;;;20.60;10.70;;;;;;;;;;5052795;28;20132;-79
2022/10/30 07:46:02;;;;;;;20.23;9.98;;;;;;;;;;5052201;28;20042;-78
2022/10/30 07:48:28;;;;;;;23.52;10.40;;;;;;;;;;5052496;28;20087;-79
2022/10/30 07:50:53;;;;;;;20.77;10.30;;;;;;;;;;5052491;28;20363;-79
2022/10/30 07:53:18;;;;;;;20.73;10.45;;;;;;;;;;5052749;28;20041;-79
2022/10/30 07:55:44;;;;;;;19.05;10.10;;;;;;;;;;5052581;28;20092;-78
2022/10/30 07:58:09;;;;;;;15.55;10.07;;;;;;;;;;5051912;28;20033;-78
2022/10/30 08:00:34;;;;;;;21.10;10.25;;;;;;;;;;5052389;28;20473;-78
2022/10/30 08:03:00;;;;;;;20.40;10.80;;;;;;;;;;5052025;28;20087;-78
2022/10/30 08:05:25;;;;;;;21.15;10.30;;;;;;;;;;5051993;28;20402;-78
2022/10/30 08:07:50;;;;;;;18.88;11.05;;;;;;;;;;5052108;28;20509;-78
2022/10/30 08:10:16;;;;;;;17.80;10.63;;;;;;;;;;5051200;28;20049;-79
2022/10/30 08:12:43;;;;;;;22.23;10.10;;;;;;;;;;5052269;28;20452;-78
2022/10/30 08:15:09;;;;;;;15.90;10.05;;;;;;;;;;5052686;28;20029;-78
2022/10/30 08:17:45;;;;;;;20.27;10.82;;;;;;;;;;5052343;28;20032;-80
2022/10/30 08:20:12;;;;;;;21.27;11.35;;;;;;;;;;5052323;28;20490;-78
2022/10/30 08:23:07;;;;;;;20.35;10.98;;;;;;;;;;5051938;28;20509;-78
2022/10/30 08:25:32;;;;;;;25.00;11.50;;;;;;;;;;5047482;28;20399;-79
2022/10/30 08:28:05;;;;;;;19.98;11.15;;;;;;;;;;5052350;28;20039;-79
2022/10/30 08:30:33;;;;;;;20.88;11.45;;;;;;;;;;5052393;28;20036;-79
2022/10/30 08:33:01;;;;;;;19.27;11.15;;;;;;;;;;5051800;28;20029;-79
2022/10/30 08:35:27;;;;;;;18.33;10.98;;;;;;;;;;5051559;28;20017;-79
2022/10/30 08:37:56;;;;;;;21.48;11.07;;;;;;;;;;5051821;28;20334;-78
2022/10/30 08:40:25;;;;;;;17.90;10.35;;;;;;;;;;5052042;28;20035;-80
2022/10/30 08:42:55;;;;;;;20.02;10.77;;;;;;;;;;5051688;28;20029;-78
2022/10/30 08:45:21;;;;;;;18.60;10.25;;;;;;;;;;5051549;28;20130;-79
2022/10/30 08:47:46;;;;;;;18.40;10.65;;;;;;;;;;5051892;28;20120;-80
2022/10/30 08:50:12;;;;;;;21.48;9.98;;;;;;;;;;5051624;28;20139;-79
2022/10/30 08:52:37;;;;;;;20.42;10.85;;;;;;;;;;5051780;28;20033;-79
2022/10/30 08:55:03;;;;;;;21.88;10.73;;;;;;;;;;5051460;28;20079;-78
2022/10/30 08:57:28;;;;;;;20.92;11.05;;;;;;;;;;5051313;28;20067;-78
2022/10/30 08:59:53;;;;;;;19.58;10.13;;;;;;;;;;5051288;28;20035;-79
2022/10/30 09:02:18;;;;;;;17.40;10.13;;;;;;;;;;5051496;28;20017;-79
2022/10/30 09:04:44;;;;;;;20.60;10.15;;;;;;;;;;5051379;28;20132;-77
2022/10/30 09:07:09;;;;;;;20.08;10.00;;;;;;;;;;5051174;28;20032;-78
2022/10/30 09:09:34;;;;;;;16.00;9.52;;;;;;;;;;5050994;28;20075;-78
2022/10/30 09:12:00;;;;;;;19.63;10.10;;;;;;;;;;5051079;28;20040;-78
2022/10/30 09:14:25;;;;;;;19.17;10.23;;;;;;;;;;5051081;28;20449;-77
2022/10/30 09:16:50;;;;;;;17.98;10.35;;;;;;;;;;5050653;28;20025;-78
2022/10/30 09:19:15;;;;;;;20.45;10.25;;;;;;;;;;5050853;28;20417;-78
2022/10/30 09:21:41;;;;;;;28.25;10.18;;;;;;;;;;5050424;28;20474;-77
2022/10/30 09:24:06;;;;;;;18.45;10.02;;;;;;;;;;5051065;28;20127;-79
2022/10/30 09:26:31;;;;;;;19.45;9.85;;;;;;;;;;5049698;28;20370;-78
2022/10/30 09:28:57;;;;;;;19.95;9.70;;;;;;;;;;5050614;28;20086;-78
2022/10/30 09:31:22;;;;;;;17.05;10.05;;;;;;;;;;5050725;28;20405;-78
2022/10/30 09:33:48;;;;;;;19.30;9.65;;;;;;;;;;5049107;28;20025;-79
2022/10/30 09:36:13;;;;;;;18.95;10.65;;;;;;;;;;5050738;28;20021;-78
2022/10/30 09:38:39;;;;;;;16.60;9.43;;;;;;;;;;5050917;28;20457;-79
2022/10/30 09:41:22;;;;;;;16.60;9.75;;;;;;;;;;5050710;28;20108;-76
2022/10/30 09:44:05;;;;;;;17.83;10.50;;;;;;;;;;5050776;28;20037;-78
2022/10/30 09:46:44;;;;;;;20.38;10.02;;;;;;;;;;5050373;28;20032;-76
2022/10/30 09:49:20;;;;;;;22.27;9.88;;;;;;;;;;5050564;28;20087;-78
2022/10/30 09:52:15;;;;;;;17.70;10.15;;;;;;;;;;5050711;28;20469;-78
2022/10/30 09:55:02;;;;;;;17.10;10.13;;;;;;;;;;5050504;28;20029;-77
2022/10/30 09:57:52;;;;;;;18.58;10.63;;;;;;;;;;5050245;28;20507;-77
2022/10/30 10:00:23;;;;;;;20.25;9.65;;;;;;;;;;5050384;28;20059;-79
2022/10/30 10:03:13;;;;;;;16.52;10.55;;;;;;;;;;5050355;28;20032;-78
2022/10/30 10:05:52;;;;;;;18.80;10.50;;;;;;;;;;5050179;28;20521;-78
2022/10/30 10:08:25;;;;;;;20.13;9.70;;;;;;;;;;5050159;28;20451;-77
2022/10/30 10:10:53;;;;;;;;;;;;;;;;;;5050365;28;20032;-78
2022/10/30 10:13:25;;;;;;;17.02;9.48;;;;;;;;;;5050118;28;19951;-77
2022/10/30 10:15:55;;;;;;;20.27;10.73;;;;;;;;;;5050210;28;20033;-78
2022/10/30 10:18:34;;;;;;;21.67;11.00;;;;;;;;;;5050474;28;20436;-79
2022/10/30 10:21:08;;;;;;;21.27;10.63;;;;;;;;;;5050128;28;20029;-77
2022/10/30 10:23:43;;;;;;;22.13;10.93;;;;;;;;;;5052860;28;20031;-78
2022/10/30 10:26:17;;;;;;;20.63;10.65;;;;;;;;;;5051659;28;20074;-76
2022/10/30 10:29:08;;;;;;;19.02;9.82;;;;;;;;;;5059449;28;20025;-80
2022/10/30 10:32:01;;;;;;;17.92;9.52;;;;;;;;;;5057205;28;20033;-80
2022/10/30 10:34:48;;;;;;;17.87;10.07;;;;;;;;;;5055725;28;20021;-80
2022/10/30 10:37:19;;;;;;;16.13;9.27;;;;;;;;;;5058416;28;20329;-78
2022/10/30 10:40:15;;;;;;;17.25;8.93;;;;;;;;;;5059330;28;20478;-79
2022/10/30 10:43:03;;;;;;;19.02;9.27;;;;;;;;;;5059540;28;20552;-78
2022/10/30 10:45:42;;;;;;;16.98;9.43;;;;;;;;;;5058462;28;20027;-78
2022/10/30 10:48:50;;;;;;;16.75;9.23;;;;;;;;;;5057145;28;20569;-78
2022/10/30 10:51:31;;;;;;;16.35;9.13;;;;;;;;;;5055739;28;20040;-78
2022/10/30 10:54:09;;;;;;;14.23;8.98;;;;;;;;;;5056239;28;20524;-78
2022/10/30 10:56:38;;;;;;;23.10;9.57;;;;;;;;;;5055666;28;20044;-78
2022/10/30 10:59:11;;;;;;;14.18;8.38;;;;;;;;;;5055180;28;20029;-79
2022/10/30 11:01:48;;;;;;;15.55;7.03;;;;;;;;;;5056796;28;20035;-79
2022/10/30 11:04:23;;;;;;;15.10;8.73;;;;;;;;;;5057556;28;20031;-79
2022/10/30 11:06:51;;;;;;;19.48;9.88;;;;;;;;;;5058179;28;20474;-78
2022/10/30 11:09:18;;;;;;;15.18;8.98;;;;;;;;;;5057658;28;20086;-79
2022/10/30 11:11:44;;;;;;;9.48;6.30;;;;;;;;;;5055943;28;20134;-79
2022/10/30 11:14:15;;;;;;;16.48;9.38;;;;;;;;;;5056357;28;20080;-78
2022/10/30 11:16:51;;;;;;;14.60;8.35;;;;;;;;;;5056119;28;20028;-78
2022/10/30 11:19:16;;;;;;;21.45;9.82;;;;;;;;;;5056679;28;20410;-78
2022/10/30 11:21:46;;;;;;;26.00;10.07;;;;;;;;;;5053820;28;20029;-78
2022/10/30 11:24:32;;;;;;;17.75;9.40;;;;;;;;;;5056941;28;20592;-78
2022/10/30 11:27:23;;;;;;;17.60;9.65;;;;;;;;;;5056182;28;20089;-77
2022/10/30 11:29:53;;;;;;;18.23;9.50;;;;;;;;;;5056992;28;20025;-79
2022/10/30 11:32:25;;;;;;;17.85;10.10;;;;;;;;;;5058656;28;20539;-79
2022/10/30 11:35:01;;;;;;;14.10;9.25;;;;;;;;;;5058209;28;20036;-79
2022/10/30 11:37:34;;;;;;;16.45;9.77;;;;;;;;;;5057937;28;20021;-79
2022/10/30 11:40:06;;;;;;;18.40;10.07;;;;;;;;;;5059418;28;20029;-79
2022/10/30 11:42:32;;;;;;;21.20;10.80;;;;;;;;;;5054866;28;20029;-78
2022/10/30 11:44:58;;;;;;;20.08;10.40;;;;;;;;;;5056415;28;20036;-78
2022/10/30 11:47:33;;;;;;;17.77;9.98;;;;;;;;;;5056904;28;20024;-77
2022/10/30 11:50:01;;;;;;;20.17;11.15;;;;;;;;;;5056591;28;20504;-79
2022/10/30 11:52:27;;;;;;;17.80;11.38;;;;;;;;;;5056509;28;20079;-78
2022/10/30 11:55:00;;;;;;;17.13;10.35;;;;;;;;;;5057928;28;20021;-78
2022/10/30 11:57:28;;;;;;;18.70;9.85;;;;;;;;;;5058640;28;20533;-79
2022/10/30 11:59:55;;;;;;;23.17;12.25;;;;;;;;;;5064014;28;20076;-78
2022/10/30 12:02:25;;;;;;;20.40;10.35;;;;;;;;;;5060609;28;20394;-79
2022/10/30 12:04:51;;;;;;;19.27;10.23;;;;;;;;;;5056891;28;20393;-77
2022/10/30 12:07:28;;;;;;;19.73;10.88;;;;;;;;;;5061125;28;20029;-77
2022/10/30 12:09:56;;;;;;;17.60;10.00;;;;;;;;;;5058142;28;20025;-78
2022/10/30 12:12:32;;;;;;;17.85;10.30;;;;;;;;;;5061373;28;20379;-78
2022/10/30 12:15:17;;;;;;;22.85;10.73;;;;;;;;;;5061166;28;20025;-77
2022/10/30 12:17:54;;;;;;;18.73;10.60;;;;;;;;;;5062515;28;20082;-78
2022/10/30 12:20:20;;;;;;;14.95;10.02;;;;;;;;;;5061838;28;20025;-78
2022/10/30 12:22:46;;;;;;;16.27;9.80;;;;;;;;;;5064602;28;20071;-79
2022/10/30 12:25:30;;;;;;;17.90;9.73;;;;;;;;;;5065210;28;20048;-79
2022/10/30 12:28:16;;;;;;;18.83;9.80;;;;;;;;;;5067003;28;20528;-79
2022/10/30 12:31:09;;;;;;;16.25;9.43;;;;;;;;;;5061190;28;20055;-78
2022/10/30 12:33:38;;;;;;;19.55;9.50;;;;;;;;;;5056282;28;20044;-78
2022/10/30 12:36:08;;;;;;;19.88;10.55;;;;;;;;;;5060066;28;20048;-78
2022/10/30 12:38:40;;;;;;;15.93;9.30;;;;;;;;;;5059491;28;20021;-77
2022/10/30 12:41:26;;;;;;;20.40;10.48;;;;;;;;;;5057975;28;20033;-77
2022/10/30 12:44:07;;;;;;;19.23;10.35;;;;;;;;;;5056460;28;20109;-77
2022/10/30 12:46:40;;;;;;;17.63;10.30;;;;;;;;;;5062165;28;20021;-78
2022/10/30 12:49:20;;;;;;;16.73;10.60;;;;;;;;;;5061470;28;20032;-78
2022/10/30 12:51:54;;;;;;;22.40;10.35;;;;;;;;;;5060526;28;20037;-79
2022/10/30 12:54:48;;;;;;;19.50;10.40;;;;;;;;;;5076729;28;20075;-78
2022/10/30 12:57:18;;;;;;;20.13;10.03;;;;;;;;;;5061291;28;20020;-78
2022/10/30 13:00:01;;;;;;;18.77;9.48;;;;;;;;;;5060683;28;20607;-78
2022/10/30 13:02:35;;;;;;;19.83;9.23;;;;;;;;;;5055883;28;20024;-77
2022/10/30 13:05:05;;;;;;;19.13;9.25;;;;;;;;;;5055308;28;20024;-77
2022/10/30 13:07:37;;;;;;;19.55;9.63;;;;;;;;;;5057860;28;20032;-78
2022/10/30 13:10:22;;;;;;;21.08;10.23;;;;;;;;;;5060973;28;20032;-78
2022/10/30 13:12:55;;;;;;;16.70;9.57;;;;;;;;;;5062524;28;20032;-78
2022/10/30 13:15:27;;;;;;;23.45;10.77;;;;;;;;;;5063180;28;20021;-78
2022/10/30 13:17:56;;;;;;;16.33;9.35;;;;;;;;;;5062233;28;20029;-78
2022/10/30 13:20:22;;;;;;;20.38;10.18;;;;;;;;;;5062102;28;20475;-79
2022/10/30 13:23:01;;;;;;;20.17;10.07;;;;;;;;;;5062007;28;20043;-79
2022/10/30 13:25:36;;;;;;;24.58;10.02;;;;;;;;;;5061141;28;20040;-78
2022/10/30 13:28:11;;;;;;;17.60;10.68;;;;;;;;;;5058176;28;20021;-79
2022/10/30 13:30:40;;;;;;;17.00;9.23;;;;;;;;;;5064597;28;20433;-78
2022/10/30 13:33:16;;;;;;;14.75;9.38;;;;;;;;;;5057113;28;20033;-78
2022/10/30 13:35:55;;;;;;;17.70;9.73;;;;;;;;;;5056962;28;20032;-78
2022/10/30 13:38:32;;;;;;;19.85;10.38;;;;;;;;;;5056522;28;20021;-78
2022/10/30 13:41:22;;;;;;;17.77;9.75;;;;;;;;;;5057541;28;20024;-78
2022/10/30 13:44:11;;;;;;;20.13;10.40;;;;;;;;;;5055055;28;20097;-76
2022/10/30 13:47:03;;;;;;;21.05;10.15;;;;;;;;;;5057005;28;20025;-78
2022/10/30 13:49:49;;;;;;;18.65;10.00;;;;;;;;;;5059088;28;20028;-77
2022/10/30 13:52:17;;;;;;;16.73;9.55;;;;;;;;;;5054275;28;20033;-77
2022/10/30 13:54:55;;;;;;;25.88;10.10;;;;;;;;;;5054001;28;20048;-78
2022/10/30 13:57:32;;;;;;;17.67;9.68;;;;;;;;;;5052951;28;20064;-77
2022/10/30 14:00:04;;;;;;;20.10;9.77;;;;;;;;;;5053982;28;20021;-78
2022/10/30 14:03:02;;;;;;;21.65;9.45;;;;;;;;;;5053780;28;20028;-77
2022/10/30 14:05:37;;;;;;;19.83;10.07;;;;;;;;;;5053785;28;20493;-77
2022/10/30 14:08:30;;;;;;;19.50;8.88;;;;;;;;;;5053534;28;20021;-77
2022/10/30 14:10:57;;;;;;;23.05;9.98;;;;;;;;;;5053794;28;20017;-77
2022/10/30 14:13:25;;;;;;;20.13;10.27;;;;;;;;;;5053511;28;20055;-77
2022/10/30 14:16:03;;;;;;;23.50;10.75;;;;;;;;;;5053636;28;20108;-77
2022/10/30 14:18:44;;;;;;;18.40;9.55;;;;;;;;;;5053343;28;20104;-77
2022/10/30 14:21:28;;;;;;;21.48;10.32;;;;;;;;;;5053562;28;20025;-77
2022/10/30 14:24:00;;;;;;;;;;;;;;;;;;5053759;28;20036;-77
2022/10/30 14:26:26;;;;;;;20.05;9.70;;;;;;;;;;5053196;28;20384;-77
2022/10/30 14:28:54;;;;;;;21.67;9.85;;;;;;;;;;5068498;28;20021;-77
2022/10/30 14:31:32;;;;;;;18.08;9.77;;;;;;;;;;5053262;28;20074;-77
2022/10/30 14:33:58;;;;;;;18.30;10.13;;;;;;;;;;5053348;28;20021;-77
2022/10/30 14:36:25;;;;;;;20.63;10.40;;;;;;;;;;5053126;28;20035;-77
2022/10/30 14:38:59;;;;;;;19.75;10.07;;;;;;;;;;5053471;28;20084;-77